createdAt,value
2022-08-22T00:02:04.470Z,66.91
2022-08-22T00:02:41.977Z,49.36
2022-08-22T00:02:46.733Z,57.92
2022-08-22T00:02:48.064Z,51.49
2022-08-22T00:02:54.359Z,58.13
2022-08-22T00:02:56.363Z,57.07
2022-08-22T00:03:12.194Z,58.99
2022-08-22T00:04:41.460Z,66.46
2022-08-22T00:07:21.700Z,65.82
2022-08-22T00:10:03.571Z,67.22
2022-08-22T00:12:52.571Z,66.90
2022-08-22T00:15:43.235Z,66.32
2022-08-22T00:18:28.275Z,67.27
2022-08-22T00:21:17.735Z,66.18
2022-08-22T00:24:19.144Z,66.34
2022-08-22T00:27:02.063Z,66.97
2022-08-22T00:29:42.375Z,66.57
2022-08-22T00:32:41.987Z,67.50
2022-08-22T00:35:17.603Z,66.91
2022-08-22T00:38:02.757Z,67.97
2022-08-22T00:40:49.682Z,67.67
2022-08-22T00:43:53.988Z,67.66
2022-08-22T00:46:54.055Z,67.95
2022-08-22T00:49:41.582Z,67.96
2022-08-22T00:52:46.541Z,67.49
2022-08-22T00:55:40.450Z,69.03
2022-08-22T00:58:22.320Z,69.58
2022-08-22T01:00:56.026Z,68.84
2022-08-22T01:03:43.894Z,68.27
2022-08-22T01:06:10.259Z,69.16
2022-08-22T01:09:01.598Z,68.29
2022-08-22T01:11:53.095Z,69.23
2022-08-22T01:14:42.963Z,68.81
2022-08-22T01:17:47.146Z,69.44
2022-08-22T01:20:35.125Z,70.01
2022-08-22T01:23:23.218Z,70.67
2022-08-22T01:26:11.880Z,69.74
2022-08-22T01:29:15.066Z,69.75
2022-08-22T01:31:41.840Z,69.12
2022-08-22T01:34:29.583Z,69.59
2022-08-22T01:37:17.620Z,69.95
2022-08-22T01:40:13.061Z,69.89
2022-08-22T01:43:00.536Z,70.72
2022-08-22T01:45:27.070Z,71.45
2022-08-22T01:48:00.055Z,70.79
2022-08-22T01:50:41.213Z,70.66
2022-08-22T01:53:24.075Z,71.48
2022-08-22T01:56:15.364Z,71.50
2022-08-22T01:58:55.364Z,70.78
2022-08-22T02:01:30.723Z,70.69
2022-08-22T02:04:20.716Z,70.90
2022-08-22T02:07:05.056Z,71.99
2022-08-22T02:10:14.539Z,71.83
2022-08-22T02:12:41.642Z,72.03
2022-08-22T02:15:14.856Z,71.83
2022-08-22T02:17:55.646Z,71.47
2022-08-22T02:20:32.978Z,71.86
2022-08-22T02:23:22.589Z,72.94
2022-08-22T02:25:49.013Z,73.99
2022-08-22T02:29:03.076Z,73.65
2022-08-22T02:31:53.735Z,73.84
2022-08-22T02:34:44.150Z,73.73
2022-08-22T02:37:22.965Z,74.08
2022-08-22T02:40:13.854Z,73.67
2022-08-22T02:42:50.852Z,74.19
2022-08-22T02:45:24.973Z,73.42
2022-08-22T02:47:59.616Z,74.50
2022-08-22T02:50:41.309Z,73.25
2022-08-22T02:53:33.279Z,74.06
2022-08-22T02:56:06.476Z,73.85
2022-08-22T02:58:53.541Z,74.07
2022-08-22T03:01:26.344Z,74.41
2022-08-22T03:04:24.409Z,75.19
2022-08-22T03:07:15.581Z,74.13
2022-08-22T03:09:49.756Z,74.01
2022-08-22T03:12:32.853Z,75.89
2022-08-22T03:15:08.828Z,74.75
2022-08-22T03:17:47.565Z,75.29
2022-08-22T03:20:35.360Z,75.30
2022-08-22T03:23:16.296Z,74.75
2022-08-22T03:25:56.281Z,73.80
2022-08-22T03:28:38.195Z,73.90
2022-08-22T03:31:26.149Z,74.83
2022-08-22T03:34:17.160Z,75.70
2022-08-22T03:37:07.513Z,77.06
2022-08-22T03:39:48.918Z,76.40
2022-08-22T03:42:35.518Z,76.18
2022-08-22T03:45:26.201Z,76.28
2022-08-22T03:48:04.759Z,77.13
2022-08-22T03:50:59.694Z,77.56
2022-08-22T03:54:11.331Z,77.32
2022-08-22T03:57:22.017Z,76.72
2022-08-22T04:00:04.176Z,76.98
2022-08-22T04:02:53.795Z,78.01
2022-08-22T04:05:36.741Z,76.50
2022-08-22T04:08:35.884Z,77.01
2022-08-22T04:11:31.428Z,77.96
2022-08-22T04:14:24.101Z,78.60
2022-08-22T04:17:09.049Z,78.59
2022-08-22T04:20:13.060Z,78.51
2022-08-22T04:23:25.389Z,78.57
2022-08-22T04:26:01.671Z,76.87
2022-08-22T04:28:52.166Z,76.72
2022-08-22T04:31:25.933Z,77.09
2022-08-22T04:34:10.789Z,76.80
2022-08-22T04:36:45.948Z,77.78
2022-08-22T04:39:21.877Z,78.65
2022-08-22T04:42:06.957Z,78.15
2022-08-22T04:45:09.909Z,77.46
2022-08-22T04:47:49.727Z,77.10
2022-08-22T04:50:42.969Z,77.77
2022-08-22T04:53:48.197Z,78.11
2022-08-22T04:56:38.891Z,77.51
2022-08-22T04:59:12.344Z,77.54
2022-08-22T05:01:53.405Z,78.69
2022-08-22T05:04:24.178Z,77.65
2022-08-22T05:06:54.199Z,77.52
2022-08-22T05:09:27.643Z,77.18
2022-08-22T05:12:00.224Z,76.65
2022-08-22T05:14:37.098Z,76.06
2022-08-22T05:17:08.429Z,76.31
2022-08-22T05:19:40.107Z,76.11
2022-08-22T05:22:14.116Z,75.36
2022-08-22T05:24:46.220Z,75.14
2022-08-22T05:27:24.348Z,74.76
2022-08-22T05:29:57.499Z,73.48
2022-08-22T05:32:40.478Z,71.28
2022-08-22T05:35:09.499Z,65.13
2022-08-22T05:37:55.925Z,58.90
2022-08-22T05:40:29.094Z,54.85
2022-08-22T05:42:57.403Z,51.13
2022-08-22T05:45:27.045Z,49.65
2022-08-22T05:48:05.876Z,46.13
2022-08-22T05:50:43.222Z,44.35
2022-08-22T05:53:12.500Z,42.83
2022-08-22T05:55:48.605Z,42.50
2022-08-22T05:58:30.090Z,42.53
2022-08-22T06:01:22.661Z,43.41
2022-08-22T06:03:59.575Z,45.90
2022-08-22T06:06:29.969Z,44.80
2022-08-22T06:09:12.751Z,42.90
2022-08-22T06:12:02.569Z,41.41
2022-08-22T06:14:41.283Z,39.10
2022-08-22T06:17:21.712Z,37.83
2022-08-22T06:19:51.369Z,39.01
2022-08-22T06:22:28.487Z,37.16
2022-08-22T06:25:00.896Z,35.54
2022-08-22T06:27:31.087Z,34.57
2022-08-22T06:30:01.681Z,33.94
2022-08-22T06:32:58.908Z,35.00
2022-08-22T06:35:30.236Z,34.71
2022-08-22T06:38:00.593Z,34.39
2022-08-22T06:40:28.563Z,36.51
2022-08-22T06:42:57.123Z,37.25
2022-08-22T06:45:32.036Z,38.67
2022-08-22T06:48:07.934Z,39.85
2022-08-22T06:50:38.015Z,40.45
2022-08-22T06:53:10.996Z,41.48
2022-08-22T06:55:42.110Z,42.74
2022-08-22T06:58:30.918Z,43.04
2022-08-22T07:01:12.303Z,43.70
2022-08-22T07:03:50.056Z,45.62
2022-08-22T07:06:28.075Z,45.83
2022-08-22T07:08:55.844Z,47.20
2022-08-22T07:11:27.935Z,47.86
2022-08-22T07:14:13.374Z,48.06
2022-08-22T07:16:44.246Z,46.99
2022-08-22T07:19:26.782Z,46.72
2022-08-22T07:21:54.453Z,46.04
2022-08-22T07:24:28.737Z,46.43
2022-08-22T07:27:05.744Z,46.19
2022-08-22T07:29:38.117Z,46.40
2022-08-22T07:32:14.807Z,46.42
2022-08-22T07:34:50.300Z,46.45
2022-08-22T07:37:22.700Z,46.75
2022-08-22T07:39:59.280Z,44.77
2022-08-22T07:42:56.247Z,42.71
2022-08-22T07:45:49.352Z,37.00
2022-08-22T07:48:53.637Z,34.59
2022-08-22T07:51:42.462Z,31.90
2022-08-22T07:54:12.731Z,29.75
2022-08-22T07:56:48.664Z,28.93
2022-08-22T07:59:19.269Z,28.80
2022-08-22T08:01:54.337Z,28.30
2022-08-22T08:04:26.117Z,28.87
2022-08-22T08:06:55.863Z,28.23
2022-08-22T08:09:23.757Z,27.66
2022-08-22T08:11:53.470Z,27.03
2022-08-22T08:14:23.495Z,26.38
2022-08-22T08:17:06.025Z,26.29
2022-08-22T08:19:40.648Z,25.84
2022-08-22T08:22:07.755Z,26.71
2022-08-22T08:24:44.751Z,28.00
2022-08-22T08:27:38.643Z,30.43
2022-08-22T08:30:43.442Z,32.48
2022-08-22T08:33:25.516Z,34.10
2022-08-22T08:36:04.117Z,34.23
2022-08-22T08:38:49.467Z,34.85
2022-08-22T08:41:28.135Z,38.20
2022-08-22T08:44:23.845Z,36.89
2022-08-22T08:46:59.713Z,35.34
2022-08-22T08:49:33.712Z,33.89
2022-08-22T08:52:00.692Z,34.79
2022-08-22T08:55:19.714Z,36.80
2022-08-22T08:58:06.799Z,36.83
2022-08-22T09:00:45.837Z,36.63
2022-08-22T09:03:41.267Z,35.84
2022-08-22T09:06:36.037Z,36.13
2022-08-22T09:09:02.751Z,35.93
2022-08-22T09:12:02.206Z,36.72
2022-08-22T09:15:01.322Z,36.78
2022-08-22T09:17:36.942Z,36.00
2022-08-22T09:20:30.726Z,38.00
2022-08-22T09:23:27.383Z,36.22
2022-08-22T09:26:17.650Z,36.75
2022-08-22T09:29:01.286Z,36.87
2022-08-22T09:32:16.658Z,36.66
2022-08-22T09:35:22.415Z,34.36
2022-08-22T09:38:27.008Z,33.30
2022-08-22T09:41:26.001Z,35.23
2022-08-22T09:44:14.531Z,34.00
2022-08-22T09:46:53.427Z,32.75
2022-08-22T09:49:35.307Z,33.42
2022-08-22T09:52:32.050Z,34.33
2022-08-22T09:55:35.037Z,35.64
2022-08-22T09:58:13.243Z,34.41
2022-08-22T10:00:56.959Z,36.72
2022-08-22T10:03:45.563Z,36.18
2022-08-22T10:06:20.390Z,34.05
2022-08-22T10:09:12.451Z,34.93
2022-08-22T10:11:44.265Z,35.43
2022-08-22T10:14:28.573Z,33.45
2022-08-22T10:16:54.988Z,32.34
2022-08-22T10:19:32.023Z,31.93
2022-08-22T10:22:23.270Z,29.88
2022-08-22T10:25:01.743Z,30.08
2022-08-22T10:27:47.081Z,31.48
2022-08-22T10:30:25.590Z,29.36
2022-08-22T10:33:08.860Z,28.92
2022-08-22T10:35:50.570Z,29.84
2022-08-22T10:38:27.862Z,27.73
2022-08-22T10:41:18.884Z,26.37
2022-08-22T10:43:56.408Z,25.39
2022-08-22T10:46:46.222Z,24.91
2022-08-22T10:49:22.496Z,25.20
2022-08-22T10:52:14.718Z,26.55
2022-08-22T10:54:51.398Z,24.68
2022-08-22T10:57:53.013Z,23.20
2022-08-22T11:00:50.179Z,27.50
2022-08-22T11:03:39.716Z,27.97
2022-08-22T11:06:13.739Z,28.30
2022-08-22T11:08:42.953Z,24.61
2022-08-22T11:11:37.845Z,23.54
2022-08-22T11:14:29.046Z,23.01
2022-08-22T11:17:27.985Z,21.15
2022-08-22T11:20:31.875Z,20.10
2022-08-22T11:23:17.141Z,21.05
2022-08-22T11:26:06.863Z,24.01
2022-08-22T11:29:31.396Z,23.65
2022-08-22T11:32:36.894Z,23.17
2022-08-22T11:35:12.774Z,26.72
2022-08-22T11:37:56.381Z,28.52
2022-08-22T11:40:44.293Z,27.06
2022-08-22T11:43:32.756Z,22.80
2022-08-22T11:46:13.867Z,21.88
2022-08-22T11:49:07.410Z,22.07
2022-08-22T11:51:59.990Z,22.25
2022-08-22T11:54:35.197Z,21.54
2022-08-22T11:57:07.925Z,21.24
2022-08-22T11:59:43.423Z,22.34
2022-08-22T12:02:44.187Z,24.48
2022-08-22T12:05:24.688Z,23.68
2022-08-22T12:08:03.784Z,22.96
2022-08-22T12:10:34.697Z,22.84
2022-08-22T12:13:13.971Z,23.93
2022-08-22T12:15:54.609Z,23.70
2022-08-22T12:18:37.741Z,24.38
2022-08-22T12:21:31.091Z,22.89
2022-08-22T12:24:19.336Z,20.78
2022-08-22T12:27:28.879Z,21.96
2022-08-22T12:30:28.169Z,21.77
2022-08-22T12:33:03.709Z,21.37
2022-08-22T12:35:39.990Z,19.97
2022-08-22T12:38:40.547Z,21.44
2022-08-22T12:41:35.058Z,19.90
2022-08-22T12:44:04.731Z,18.17
2022-08-22T12:46:33.853Z,18.99
2022-08-22T12:49:38.463Z,16.61
2022-08-22T12:52:28.459Z,16.83
2022-08-22T12:55:00.909Z,16.59
2022-08-22T12:57:27.310Z,15.76
2022-08-22T12:59:59.221Z,15.18
2022-08-22T13:02:32.865Z,15.92
2022-08-22T13:05:13.847Z,15.55
2022-08-22T13:07:54.936Z,15.32
2022-08-22T13:10:50.651Z,15.19
2022-08-22T13:13:41.603Z,14.76
2022-08-22T13:16:19.831Z,13.84
2022-08-22T13:18:55.404Z,14.15
2022-08-22T13:21:28.754Z,14.02
2022-08-22T13:24:04.693Z,15.49
2022-08-22T13:26:35.272Z,15.74
2022-08-22T13:29:39.621Z,18.71
2022-08-22T13:32:02.398Z,18.09
2022-08-22T13:34:58.429Z,16.76
2022-08-22T13:37:34.485Z,17.63
2022-08-22T13:40:06.322Z,18.00
2022-08-22T13:42:40.116Z,17.88
2022-08-22T13:45:15.181Z,17.53
2022-08-22T13:47:51.366Z,17.57
2022-08-22T13:50:23.795Z,18.12
2022-08-22T13:53:15.397Z,20.29
2022-08-22T13:55:59.804Z,21.09
2022-08-22T13:58:46.472Z,18.24
2022-08-22T14:01:19.910Z,18.88
2022-08-22T14:03:57.558Z,18.84
2022-08-22T14:06:43.713Z,18.08
2022-08-22T14:09:30.675Z,18.67
2022-08-22T14:12:12.162Z,17.53
2022-08-22T14:14:42.605Z,18.13
2022-08-22T14:17:17.418Z,18.66
2022-08-22T14:19:58.897Z,20.09
2022-08-22T14:22:32.099Z,21.24
2022-08-22T14:25:07.219Z,22.53
2022-08-22T14:27:39.782Z,21.36
2022-08-22T14:30:20.315Z,21.00
2022-08-22T14:33:11.549Z,20.91
2022-08-22T14:35:44.176Z,18.85
2022-08-22T14:38:31.373Z,18.11
2022-08-22T14:41:21.019Z,18.60
2022-08-22T14:43:54.983Z,19.54
2022-08-22T14:46:27.416Z,20.49
2022-08-22T14:49:20.731Z,21.30
2022-08-22T14:51:58.176Z,21.89
2022-08-22T14:54:28.895Z,23.05
2022-08-22T14:56:57.145Z,23.98
2022-08-22T14:59:33.495Z,22.89
2022-08-22T15:02:15.727Z,23.56
2022-08-22T15:04:49.730Z,23.52
2022-08-22T15:07:30.928Z,23.95
2022-08-22T15:10:24.068Z,23.84
2022-08-22T15:12:53.937Z,24.35
2022-08-22T15:15:32.694Z,24.31
2022-08-22T15:18:36.552Z,24.61
2022-08-22T15:21:21.078Z,24.42
2022-08-22T15:23:53.891Z,22.55
2022-08-22T15:26:30.609Z,19.99
2022-08-22T15:29:16.256Z,18.58
2022-08-22T15:31:46.870Z,17.81
2022-08-22T15:34:28.511Z,18.11
2022-08-22T15:37:17.739Z,18.35
2022-08-22T15:40:14.281Z,19.64
2022-08-22T15:42:48.595Z,21.81
2022-08-22T15:45:38.079Z,23.22
2022-08-22T15:48:09.389Z,23.67
2022-08-22T15:50:38.767Z,24.14
2022-08-22T15:53:13.447Z,24.83
2022-08-22T15:56:10.934Z,25.29
2022-08-22T15:58:48.839Z,24.97
2022-08-22T16:01:20.490Z,26.35
2022-08-22T16:04:12.630Z,26.35
2022-08-22T16:06:54.693Z,26.53
2022-08-22T16:09:42.702Z,26.46
2022-08-22T16:12:26.606Z,27.11
2022-08-22T16:14:53.753Z,26.78
2022-08-22T16:17:29.328Z,26.49
2022-08-22T16:20:07.725Z,25.55
2022-08-22T16:22:58.297Z,25.94
2022-08-22T16:25:46.686Z,26.74
2022-08-22T16:28:56.323Z,27.57
2022-08-22T16:31:31.035Z,27.61
2022-08-22T16:34:17.831Z,27.10
2022-08-22T16:37:02.890Z,27.46
2022-08-22T16:39:50.746Z,28.39
2022-08-22T16:42:23.290Z,28.70
2022-08-22T16:45:14.348Z,28.92
2022-08-22T16:47:52.204Z,29.87
2022-08-22T16:50:32.603Z,29.38
2022-08-22T16:53:28.252Z,28.84
2022-08-22T16:56:14.059Z,29.15
2022-08-22T16:59:39.217Z,29.07
2022-08-22T17:02:34.559Z,28.29
2022-08-22T17:05:09.408Z,28.27
2022-08-22T17:07:57.426Z,28.50
2022-08-22T17:11:04.743Z,28.75
2022-08-22T17:14:00.336Z,29.14
2022-08-22T17:16:57.330Z,29.70
2022-08-22T17:19:40.385Z,29.36
2022-08-22T17:22:15.970Z,29.04
2022-08-22T17:24:47.059Z,29.62
2022-08-22T17:27:22.284Z,30.39
2022-08-22T17:29:48.885Z,30.62
2022-08-22T17:32:18.030Z,31.96
2022-08-22T17:34:59.661Z,35.23
2022-08-22T17:37:54.738Z,34.68
2022-08-22T17:40:21.270Z,35.02
2022-08-22T17:43:17.281Z,36.61
2022-08-22T17:46:07.839Z,36.64
2022-08-22T17:49:21.793Z,35.20
2022-08-22T17:52:13.084Z,34.53
2022-08-22T17:54:47.101Z,35.61
2022-08-22T17:57:36.465Z,36.72
2022-08-22T18:00:26.530Z,36.85
2022-08-22T18:03:19.060Z,38.52
2022-08-22T18:05:53.438Z,39.58
2022-08-22T18:08:38.738Z,40.19
2022-08-22T18:11:40.326Z,39.97
2022-08-22T18:14:20.035Z,40.36
2022-08-22T18:16:50.534Z,41.15
2022-08-22T18:19:58.989Z,40.90
2022-08-22T18:22:31.702Z,41.44
2022-08-22T18:25:19.577Z,43.01
2022-08-22T18:27:57.949Z,44.24
2022-08-22T18:30:47.824Z,42.91
2022-08-22T18:33:20.214Z,44.35
2022-08-22T18:35:55.574Z,43.85
2022-08-22T18:38:37.644Z,44.19
2022-08-22T18:41:24.095Z,45.41
2022-08-22T18:43:53.636Z,45.77
2022-08-22T18:46:38.134Z,46.01
2022-08-22T18:49:22.077Z,47.12
2022-08-22T18:52:13.767Z,46.54
2022-08-22T18:55:06.573Z,46.92
2022-08-22T18:57:46.342Z,46.50
2022-08-22T19:00:49.373Z,45.12
2022-08-22T19:03:27.951Z,46.67
2022-08-22T19:06:18.950Z,46.46
2022-08-22T19:09:12.975Z,45.69
2022-08-22T19:11:50.122Z,45.78
2022-08-22T19:14:16.605Z,46.45
2022-08-22T19:17:00.675Z,46.97
2022-08-22T19:20:12.338Z,49.24
2022-08-22T19:22:39.260Z,49.70
2022-08-22T19:25:14.760Z,49.68
2022-08-22T19:28:06.565Z,49.57
2022-08-22T19:30:46.986Z,48.30
2022-08-22T19:33:34.210Z,48.38
2022-08-22T19:36:12.232Z,48.16
2022-08-22T19:39:01.123Z,48.53
2022-08-22T19:41:54.217Z,49.43
2022-08-22T19:44:20.634Z,49.70
2022-08-22T19:47:07.258Z,50.17
2022-08-22T19:49:38.431Z,50.63
2022-08-22T19:52:15.699Z,50.23
2022-08-22T19:55:15.406Z,50.80
2022-08-22T19:57:46.547Z,51.32
2022-08-22T20:00:19.741Z,50.77
2022-08-22T20:02:58.606Z,50.75
2022-08-22T20:06:05.937Z,51.19
2022-08-22T20:08:44.855Z,50.79
2022-08-22T20:11:26.240Z,50.35
2022-08-22T20:14:30.393Z,50.12
2022-08-22T20:16:59.802Z,50.58
2022-08-22T20:22:48.549Z,50.45
2022-08-22T20:25:42.807Z,49.94
2022-08-22T20:28:33.955Z,50.25
2022-08-22T20:31:04.652Z,50.93
2022-08-22T20:33:41.084Z,51.62
2022-08-22T20:36:28.099Z,51.99
2022-08-22T20:39:05.521Z,52.80
2022-08-22T20:41:44.532Z,52.91
2022-08-22T20:44:18.458Z,52.59
2022-08-22T20:46:56.282Z,51.76
2022-08-22T20:49:28.590Z,52.04
2022-08-22T20:52:03.771Z,51.74
2022-08-22T20:54:33.613Z,52.72
2022-08-22T20:57:13.986Z,53.32
2022-08-22T20:59:49.236Z,53.27
2022-08-22T21:02:27.426Z,52.35
2022-08-22T21:05:01.471Z,53.30
2022-08-22T21:07:34.518Z,53.44
2022-08-22T21:10:34.228Z,54.33
2022-08-22T21:13:07.447Z,53.57
2022-08-22T21:15:45.769Z,53.39
2022-08-22T21:18:24.526Z,53.89
2022-08-22T21:20:51.415Z,53.71
2022-08-22T21:23:19.450Z,53.15
2022-08-22T21:25:53.827Z,51.98
2022-08-22T21:28:33.333Z,52.88
2022-08-22T21:31:09.810Z,53.08
2022-08-22T21:33:40.894Z,53.94
2022-08-22T21:36:10.673Z,53.57
2022-08-22T21:38:38.082Z,54.09
2022-08-22T21:41:05.424Z,54.89
2022-08-22T21:43:39.047Z,55.84
2022-08-22T21:46:07.171Z,55.66
2022-08-22T21:48:35.143Z,55.79
2022-08-22T21:51:40.731Z,55.18
2022-08-22T21:54:25.598Z,55.17
2022-08-22T21:56:54.614Z,55.37
2022-08-22T21:59:52.310Z,56.14
2022-08-22T22:02:40.071Z,54.59
2022-08-22T22:05:08.628Z,55.06
2022-08-22T22:07:38.263Z,54.87
2022-08-22T22:10:07.296Z,54.39
2022-08-22T22:12:33.794Z,54.45
2022-08-22T22:15:00.534Z,53.65
2022-08-22T22:17:27.008Z,54.19
2022-08-22T22:19:54.258Z,53.57
2022-08-22T22:22:21.806Z,52.88
2022-08-22T22:24:48.312Z,45.81
2022-08-22T22:27:17.083Z,44.14
2022-08-22T22:29:43.889Z,43.25
2022-08-22T22:32:10.417Z,44.24
2022-08-22T22:34:38.986Z,42.71
2022-08-22T22:37:08.254Z,43.31
2022-08-22T22:39:36.666Z,43.35
2022-08-22T22:42:04.189Z,43.08
2022-08-22T22:44:30.895Z,42.48
2022-08-22T22:47:02.387Z,42.36
2022-08-22T22:49:31.142Z,42.32
2022-08-22T22:51:59.147Z,41.58
2022-08-22T22:54:27.143Z,42.52
2022-08-22T22:56:54.289Z,44.32
2022-08-22T22:59:24.575Z,43.53
2022-08-22T23:02:08.493Z,43.43
2022-08-22T23:04:37.827Z,43.65
2022-08-22T23:07:05.431Z,44.56
2022-08-22T23:09:38.029Z,44.39
2022-08-22T23:12:05.986Z,44.98
2022-08-22T23:14:33.048Z,45.38
2022-08-22T23:16:59.700Z,44.32
2022-08-22T23:19:27.318Z,45.98
2022-08-22T23:21:59.022Z,46.82
2022-08-22T23:24:29.191Z,47.00
2022-08-22T23:26:56.221Z,47.32
2022-08-22T23:29:22.824Z,47.83
2022-08-22T23:31:55.469Z,48.67
2022-08-22T23:34:25.820Z,47.98
2022-08-22T23:36:54.200Z,48.83
2022-08-22T23:39:22.759Z,48.21
2022-08-22T23:41:49.888Z,48.73
2022-08-22T23:44:22.663Z,47.99
2022-08-22T23:46:49.523Z,50.09
2022-08-22T23:49:16.497Z,51.34
2022-08-22T23:51:43.711Z,51.28
2022-08-22T23:54:10.228Z,51.31
2022-08-22T23:56:42.814Z,51.72
2022-08-22T23:59:13.063Z,52.15
